Current | Forecast
Updated: 11:30 AM CEST on April 21, 2018
Observed at Burgos, Spain
Temperature 15°C
Humidity 63%
Dew Point 8°C
Wind NNE at 11 km/h
Pressure 1020 hPa (Steady)
Conditions Clear
Visibility -
UV N/A
Clouds
Yesterday's Maximum 19°C
Yesterday's Minimum 6°C approx.
Yesterday's Heating Degree Days 11 approx.
Sunrise7:26 AM CEST
Sunset9:02 PM CEST
Moon Rise11:50 AM CEST
Moon Set2:00 AM CEST
Moon PhaseMoon Phase
Waxing Crescent
Raw METARMETAR LEBG 210930Z 02006KT 350V060 CAVOK 15/08 Q1020


Monday
. High: 69° F.
Tuesday
. High: 73° F.
Wednesday
. High: 62° F.
Thursday
. High: 66° F.
Friday
. High: 77° F.
Saturday
. High: 75° F.
Sunday
. High: 75° F.
Monday
. High: 84° F.

Units: English | Metric

Find the Weather for any City, State or Zipcode, or Country:

U.S. State List | Severe Weather | Tropical Storms | Ski Conditions
United States | Canada | Central America | South America | Asia | Europe | Australia | Africa | Islands

Weather Underground

© Copyright 2018
The Weather Company, LLC